createdAt,value
2018-07-19T00:01:25.245Z,22.10
2018-07-19T00:03:53.340Z,22.10
2018-07-19T00:06:21.408Z,22.10
2018-07-19T00:08:49.509Z,22.00
2018-07-19T00:11:17.607Z,22.00
2018-07-19T00:13:45.735Z,22.00
2018-07-19T00:16:13.827Z,21.90
2018-07-19T00:18:41.905Z,22.00
2018-07-19T00:21:09.993Z,22.00
2018-07-19T00:23:38.096Z,21.90
2018-07-19T00:26:06.190Z,21.90
2018-07-19T00:28:34.282Z,21.90
2018-07-19T00:33:30.233Z,21.90
2018-07-19T00:35:58.318Z,21.90
2018-07-19T00:38:26.557Z,21.80
2018-07-19T00:40:54.629Z,21.90
2018-07-19T00:43:22.717Z,21.90
2018-07-19T00:45:50.805Z,21.80
2018-07-19T00:48:18.914Z,21.80
2018-07-19T00:50:46.999Z,21.70
2018-07-19T00:53:15.105Z,21.70
2018-07-19T00:55:43.181Z,21.70
2018-07-19T00:58:11.280Z,21.60
2018-07-19T01:00:39.373Z,21.60
2018-07-19T01:03:07.481Z,21.60
2018-07-19T01:05:35.556Z,21.50
2018-07-19T01:08:03.893Z,21.40
2018-07-19T01:10:31.309Z,21.40
2018-07-19T01:12:58.732Z,21.40
2018-07-19T01:15:26.167Z,21.30
2018-07-19T01:17:53.696Z,21.30
2018-07-19T01:20:21.121Z,21.20
2018-07-19T01:22:48.554Z,21.20
2018-07-19T01:25:16.116Z,21.20
2018-07-19T01:27:43.545Z,21.10
2018-07-19T01:30:10.984Z,21.10
2018-07-19T01:32:38.405Z,21.10
2018-07-19T01:35:05.840Z,21.00
2018-07-19T01:37:33.262Z,21.00
2018-07-19T01:40:01.073Z,21.00
2018-07-19T01:42:30.460Z,21.00
2018-07-19T01:44:57.940Z,21.00
2018-07-19T01:47:25.411Z,20.90
2018-07-19T01:49:52.832Z,20.90
2018-07-19T01:52:20.249Z,20.80
2018-07-19T01:54:47.672Z,20.80
2018-07-19T01:57:16.329Z,20.80
2018-07-19T01:59:44.264Z,20.80
2018-07-19T02:02:12.173Z,20.70
2018-07-19T02:04:39.592Z,20.70
2018-07-19T02:07:07.385Z,20.70
2018-07-19T02:09:34.808Z,20.60
2018-07-19T02:12:02.270Z,20.60
2018-07-19T02:14:30.049Z,20.60
2018-07-19T02:16:58.149Z,20.60
2018-07-19T02:19:26.253Z,20.60
2018-07-19T02:21:54.342Z,20.50
2018-07-19T02:24:22.434Z,20.50
2018-07-19T02:26:50.531Z,20.40
2018-07-19T02:29:18.633Z,20.40
2018-07-19T02:31:46.797Z,20.30
2018-07-19T02:34:14.872Z,20.40
2018-07-19T02:36:42.991Z,20.30
2018-07-19T02:39:12.197Z,20.30
2018-07-19T02:41:40.577Z,20.20
2018-07-19T02:46:39.791Z,20.20
2018-07-19T02:51:36.153Z,20.10
2018-07-19T02:54:04.237Z,20.10
2018-07-19T02:56:32.343Z,20.10
2018-07-19T02:59:00.498Z,20.10
2018-07-19T03:01:28.591Z,20.00
2018-07-19T03:03:56.670Z,20.00
2018-07-19T03:06:24.943Z,20.00
2018-07-19T03:08:53.037Z,20.00
2018-07-19T03:11:21.143Z,19.90
2018-07-19T03:13:49.441Z,19.90
2018-07-19T03:16:17.585Z,19.90
2018-07-19T03:18:45.657Z,19.80
2018-07-19T03:21:13.773Z,19.90
2018-07-19T03:23:42.093Z,19.90
2018-07-19T03:26:10.422Z,19.80
2018-07-19T03:28:38.510Z,19.80
2018-07-19T03:31:06.881Z,19.80
2018-07-19T03:33:35.013Z,19.80
2018-07-19T03:36:03.523Z,19.70
2018-07-19T03:38:31.602Z,19.70
2018-07-19T03:40:59.689Z,19.70
2018-07-19T03:43:27.841Z,19.60
2018-07-19T03:45:56.116Z,19.60
2018-07-19T03:48:24.245Z,19.60
2018-07-19T03:50:52.330Z,19.60
2018-07-19T03:53:20.445Z,19.50
2018-07-19T03:55:48.556Z,19.60
2018-07-19T03:58:16.951Z,19.60
2018-07-19T04:00:45.024Z,19.60
2018-07-19T04:03:13.109Z,19.50
2018-07-19T04:05:41.198Z,19.50
2018-07-19T04:08:09.336Z,19.50
2018-07-19T04:10:37.412Z,19.50
2018-07-19T04:13:05.528Z,19.50
2018-07-19T04:15:33.649Z,19.50
2018-07-19T04:18:01.741Z,19.50
2018-07-19T04:20:31.241Z,19.50
2018-07-19T04:22:59.333Z,19.40
2018-07-19T04:25:27.802Z,19.40
2018-07-19T04:27:56.795Z,19.40
2018-07-19T04:30:24.886Z,19.40
2018-07-19T04:32:53.012Z,19.40
2018-07-19T04:35:21.405Z,19.50
2018-07-19T04:37:49.513Z,19.60
2018-07-19T04:40:17.637Z,19.60
2018-07-19T04:42:45.737Z,19.70
2018-07-19T04:45:13.825Z,19.70
2018-07-19T04:47:41.937Z,19.80
2018-07-19T04:50:10.006Z,19.80
2018-07-19T04:52:38.098Z,19.80
2018-07-19T04:55:06.213Z,19.80
2018-07-19T04:57:34.309Z,19.80
2018-07-19T05:00:02.602Z,19.80
2018-07-19T05:02:30.718Z,19.80
2018-07-19T05:04:58.833Z,19.80
2018-07-19T05:07:26.951Z,19.80
2018-07-19T05:09:55.030Z,19.80
2018-07-19T05:12:23.121Z,19.90
2018-07-19T05:14:51.363Z,19.80
2018-07-19T05:17:19.453Z,19.80
2018-07-19T05:19:47.538Z,19.80
2018-07-19T05:24:43.725Z,19.80
2018-07-19T05:27:11.812Z,19.90
2018-07-19T05:29:39.901Z,19.90
2018-07-19T05:32:08.089Z,19.90
2018-07-19T05:34:36.208Z,19.80
2018-07-19T05:37:04.261Z,19.80
2018-07-19T05:39:32.357Z,19.80
2018-07-19T05:42:00.462Z,19.80
2018-07-19T05:44:28.550Z,19.90
2018-07-19T05:49:24.567Z,20.00
2018-07-19T05:51:52.644Z,20.00
2018-07-19T05:54:20.877Z,20.10
2018-07-19T05:56:48.964Z,20.10
2018-07-19T05:59:17.161Z,20.20
2018-07-19T06:01:45.255Z,20.20
2018-07-19T06:04:13.336Z,20.20
2018-07-19T06:06:41.421Z,20.20
2018-07-19T06:09:10.777Z,20.20
2018-07-19T06:11:38.857Z,20.30
2018-07-19T06:14:07.000Z,20.30
2018-07-19T06:16:35.173Z,20.30
2018-07-19T06:19:03.283Z,20.40
2018-07-19T06:21:31.546Z,20.40
2018-07-19T06:23:59.689Z,20.40
2018-07-19T06:26:27.780Z,20.50
2018-07-19T06:28:55.962Z,20.60
2018-07-19T06:31:24.066Z,20.60
2018-07-19T06:36:20.088Z,20.70
2018-07-19T06:38:48.216Z,20.70
2018-07-19T06:41:16.314Z,20.80
2018-07-19T06:43:44.366Z,20.80
2018-07-19T06:46:12.449Z,20.90
2018-07-19T06:48:40.553Z,20.90
2018-07-19T06:53:36.569Z,21.10
2018-07-19T06:56:04.970Z,21.20
2018-07-19T06:58:33.074Z,21.20
2018-07-19T07:01:01.149Z,21.30
2018-07-19T07:03:29.267Z,21.40
2018-07-19T07:05:57.341Z,21.40
2018-07-19T07:08:25.449Z,21.50
2018-07-19T07:10:53.529Z,21.50
2018-07-19T07:13:21.812Z,21.60
2018-07-19T07:15:49.895Z,21.70
2018-07-19T07:18:17.994Z,21.70
2018-07-19T07:20:47.877Z,21.80
2018-07-19T07:23:16.073Z,21.90
2018-07-19T07:25:49.241Z,21.90
2018-07-19T07:28:18.260Z,22.10
2018-07-19T07:30:46.445Z,22.10
2018-07-19T07:33:14.926Z,22.20
2018-07-19T07:35:43.037Z,22.30
2018-07-19T07:38:11.133Z,22.40
2018-07-19T07:40:39.233Z,22.50
2018-07-19T07:43:07.993Z,22.50
2018-07-19T07:45:36.091Z,22.60
2018-07-19T07:48:04.171Z,22.60
2018-07-19T07:50:32.429Z,22.70
2018-07-19T07:53:00.531Z,22.80
2018-07-19T07:55:28.601Z,22.90
2018-07-19T07:57:56.688Z,23.00
2018-07-19T08:00:24.792Z,23.00
2018-07-19T08:02:52.865Z,23.10
2018-07-19T08:05:21.129Z,23.20
2018-07-19T08:07:49.223Z,23.20
2018-07-19T08:10:17.295Z,23.30
2018-07-19T08:12:45.388Z,23.40
2018-07-19T08:17:41.337Z,23.50
2018-07-19T08:20:09.412Z,23.50
2018-07-19T08:22:37.502Z,23.60
2018-07-19T08:25:05.632Z,23.70
2018-07-19T08:27:33.719Z,23.70
2018-07-19T08:30:01.809Z,23.80
2018-07-19T08:32:29.891Z,23.80
2018-07-19T08:34:58.005Z,23.90
2018-07-19T08:37:26.205Z,23.90
2018-07-19T08:39:54.285Z,24.00
2018-07-19T08:42:22.393Z,24.00
2018-07-19T08:44:50.488Z,24.10
2018-07-19T08:47:18.568Z,24.10
2018-07-19T08:49:47.435Z,24.20
2018-07-19T08:52:16.317Z,24.30
2018-07-19T08:54:45.085Z,24.30
2018-07-19T08:57:13.426Z,24.40
2018-07-19T09:02:09.445Z,24.50
2018-07-19T09:04:37.528Z,24.50
2018-07-19T09:07:05.615Z,24.60
2018-07-19T09:09:33.685Z,24.70
2018-07-19T09:12:01.769Z,24.80
2018-07-19T09:14:29.868Z,24.90
2018-07-19T09:16:57.945Z,24.90
2018-07-19T09:19:26.063Z,25.00
2018-07-19T09:21:54.113Z,25.00
2018-07-19T09:24:22.294Z,25.10
2018-07-19T09:26:50.389Z,25.10
2018-07-19T09:29:18.465Z,25.20
2018-07-19T09:31:46.550Z,25.30
2018-07-19T09:34:14.646Z,25.40
2018-07-19T09:36:42.728Z,25.40
2018-07-19T09:39:12.232Z,25.50
2018-07-19T09:41:41.199Z,25.50
2018-07-19T09:44:09.483Z,25.60
2018-07-19T09:46:37.697Z,25.70
2018-07-19T09:49:05.949Z,25.80
2018-07-19T09:51:34.304Z,25.80
2018-07-19T09:54:02.726Z,25.90
2018-07-19T09:56:31.073Z,26.00
2018-07-19T09:58:59.166Z,26.10
2018-07-19T10:01:27.277Z,26.20
2018-07-19T10:03:55.379Z,26.30
2018-07-19T10:06:23.453Z,26.30
2018-07-19T10:08:51.537Z,26.40
2018-07-19T10:11:19.631Z,26.40
2018-07-19T10:13:47.959Z,26.50
2018-07-19T10:16:16.152Z,26.60
2018-07-19T10:18:44.426Z,26.60
2018-07-19T10:21:12.504Z,26.70
2018-07-19T10:23:40.591Z,26.70
2018-07-19T10:26:08.745Z,26.80
2018-07-19T10:28:36.841Z,26.90
2018-07-19T10:31:04.917Z,26.90
2018-07-19T10:33:32.989Z,27.00
2018-07-19T10:36:01.077Z,27.00
2018-07-19T10:38:29.150Z,27.10
2018-07-19T10:40:57.230Z,27.20
2018-07-19T10:43:25.539Z,27.30
2018-07-19T10:45:53.654Z,27.40
2018-07-19T10:48:21.750Z,27.50
2018-07-19T10:50:49.857Z,27.50
2018-07-19T10:53:18.106Z,27.60
2018-07-19T10:55:46.306Z,27.60
2018-07-19T10:58:14.389Z,27.60
2018-07-19T11:00:42.493Z,27.70
2018-07-19T11:03:10.570Z,27.80
2018-07-19T11:05:38.795Z,27.90
2018-07-19T11:08:06.869Z,28.00
2018-07-19T11:10:34.954Z,28.10
2018-07-19T11:13:03.041Z,28.20
2018-07-19T11:15:31.107Z,28.20
2018-07-19T11:17:59.183Z,28.20
2018-07-19T11:20:27.260Z,28.30
2018-07-19T11:22:55.363Z,28.40
2018-07-19T11:25:23.587Z,28.40
2018-07-19T11:27:52.158Z,28.50
2018-07-19T11:30:20.246Z,28.50
2018-07-19T11:32:48.373Z,28.60
2018-07-19T11:35:16.489Z,28.70
2018-07-19T11:37:44.526Z,28.70
2018-07-19T11:40:12.605Z,28.80
2018-07-19T11:42:40.694Z,28.70
2018-07-19T11:45:08.772Z,28.80
2018-07-19T11:47:36.864Z,28.90
2018-07-19T11:50:05.490Z,29.00
2018-07-19T11:52:33.577Z,29.20
2018-07-19T11:55:01.673Z,29.40
2018-07-19T11:57:29.749Z,29.50
2018-07-19T11:59:57.841Z,29.60
2018-07-19T12:02:25.909Z,29.70
2018-07-19T12:04:54.023Z,29.70
2018-07-19T12:07:22.122Z,29.60
2018-07-19T12:09:50.305Z,29.60
2018-07-19T12:14:46.705Z,29.70
2018-07-19T12:17:14.789Z,29.80
2018-07-19T12:19:42.892Z,29.90
2018-07-19T12:22:10.994Z,30.00
2018-07-19T12:24:39.088Z,30.10
2018-07-19T12:27:07.157Z,30.20
2018-07-19T12:29:35.273Z,30.40
2018-07-19T12:32:03.364Z,30.50
2018-07-19T12:34:32.337Z,30.60
2018-07-19T12:37:00.419Z,30.70
2018-07-19T12:39:28.504Z,30.90
2018-07-19T12:41:56.588Z,31.10
2018-07-19T12:44:24.693Z,31.50
2018-07-19T12:46:52.793Z,32.00
2018-07-19T12:49:20.861Z,32.60
2018-07-19T12:51:48.961Z,33.30
2018-07-19T12:54:17.025Z,34.20
2018-07-19T12:56:45.098Z,35.40
2018-07-19T12:59:12.521Z,36.80
2018-07-19T13:01:40.602Z,38.20
2018-07-19T13:04:08.717Z,39.30
2018-07-19T13:06:36.809Z,40.40
2018-07-19T13:09:07.324Z,41.10
2018-07-19T13:11:36.248Z,41.80
2018-07-19T13:14:05.677Z,42.30
2018-07-19T13:19:01.626Z,42.20
2018-07-19T13:21:29.941Z,41.90
2018-07-19T13:24:01.463Z,41.40
2018-07-19T13:26:29.558Z,40.60
2018-07-19T13:28:57.641Z,40.20
2018-07-19T13:31:26.165Z,39.60
2018-07-19T13:33:54.250Z,39.10
2018-07-19T13:36:22.372Z,38.80
2018-07-19T13:38:50.452Z,38.30
2018-07-19T13:41:18.528Z,38.00
2018-07-19T13:43:46.638Z,37.60
2018-07-19T13:46:14.733Z,37.50
2018-07-19T13:48:42.833Z,37.20
2018-07-19T13:51:10.925Z,37.00
2018-07-19T13:53:50.449Z,36.70
2018-07-19T13:56:18.583Z,36.30
2018-07-19T13:58:46.635Z,36.10
2018-07-19T14:01:14.833Z,35.90
2018-07-19T14:03:42.958Z,35.70
2018-07-19T14:06:11.046Z,35.60
2018-07-19T14:08:39.135Z,35.50
2018-07-19T14:11:07.209Z,35.30
2018-07-19T14:13:35.328Z,35.20
2018-07-19T14:16:03.413Z,35.10
2018-07-19T14:18:31.501Z,35.10
2018-07-19T14:20:59.560Z,35.10
2018-07-19T14:25:55.570Z,35.00
2018-07-19T14:28:23.661Z,35.10
2018-07-19T14:30:51.737Z,35.20
2018-07-19T14:33:19.816Z,35.20
2018-07-19T14:35:47.899Z,35.10
2018-07-19T14:38:15.981Z,35.10
2018-07-19T14:40:44.058Z,35.10
2018-07-19T14:43:12.147Z,35.10
2018-07-19T14:45:40.237Z,35.10
2018-07-19T14:48:08.368Z,35.00
2018-07-19T14:53:04.685Z,34.90
2018-07-19T14:55:32.778Z,34.90
2018-07-19T14:58:00.866Z,34.90
2018-07-19T15:00:28.947Z,34.80
2018-07-19T15:02:57.017Z,34.80
2018-07-19T15:05:25.098Z,34.70
2018-07-19T15:07:53.179Z,34.70
2018-07-19T15:10:21.293Z,34.70
2018-07-19T15:12:49.590Z,34.80
2018-07-19T15:15:17.727Z,34.70
2018-07-19T15:17:45.769Z,34.70
2018-07-19T15:20:13.864Z,34.70
2018-07-19T15:22:41.948Z,34.70
2018-07-19T15:25:10.037Z,34.70
2018-07-19T15:27:38.109Z,34.70
2018-07-19T15:30:06.313Z,34.70
2018-07-19T15:32:34.490Z,34.70
2018-07-19T15:35:02.717Z,34.80
2018-07-19T15:37:30.882Z,34.80
2018-07-19T15:39:59.029Z,34.70
2018-07-19T15:42:27.122Z,34.50
2018-07-19T15:44:55.262Z,34.40
2018-07-19T15:47:23.333Z,34.30
2018-07-19T15:49:51.441Z,34.30
2018-07-19T15:52:19.635Z,34.30
2018-07-19T15:54:47.745Z,34.20
2018-07-19T15:57:15.827Z,34.30
2018-07-19T15:59:43.929Z,34.20
2018-07-19T16:02:12.012Z,34.20
2018-07-19T16:04:47.053Z,34.20
2018-07-19T16:07:15.173Z,34.30
2018-07-19T16:09:43.605Z,34.10
2018-07-19T16:12:11.678Z,34.20
2018-07-19T16:14:39.909Z,34.10
2018-07-19T16:17:08.022Z,34.10
2018-07-19T16:19:36.163Z,34.10
2018-07-19T16:22:04.245Z,34.10
2018-07-19T16:24:32.331Z,34.00
2018-07-19T16:27:00.453Z,34.00
2018-07-19T16:29:28.637Z,33.90
2018-07-19T16:31:56.726Z,33.90
2018-07-19T16:34:24.830Z,33.80
2018-07-19T16:36:52.902Z,33.60
2018-07-19T16:39:21.006Z,33.50
2018-07-19T16:41:49.085Z,33.40
2018-07-19T16:44:17.166Z,33.40
2018-07-19T16:49:13.193Z,33.50
2018-07-19T16:51:41.273Z,33.60
2018-07-19T16:54:09.372Z,33.70
2018-07-19T16:56:37.438Z,33.70
2018-07-19T16:59:05.513Z,33.70
2018-07-19T17:01:33.595Z,33.60
2018-07-19T17:04:01.697Z,33.50
2018-07-19T17:06:29.780Z,33.30
2018-07-19T17:08:57.876Z,33.20
2018-07-19T17:11:25.928Z,33.10
2018-07-19T17:13:54.025Z,32.90
2018-07-19T17:16:22.112Z,32.70
2018-07-19T17:18:50.191Z,32.60
2018-07-19T17:21:18.269Z,32.40
2018-07-19T17:23:46.552Z,32.30
2018-07-19T17:26:14.697Z,32.10
2018-07-19T17:28:42.841Z,31.90
2018-07-19T17:31:10.936Z,31.90
2018-07-19T17:33:39.024Z,31.80
2018-07-19T17:36:07.121Z,31.60
2018-07-19T17:38:35.201Z,31.50
2018-07-19T17:41:03.321Z,31.40
2018-07-19T17:43:31.396Z,31.20
2018-07-19T17:45:59.497Z,31.00
2018-07-19T17:48:27.865Z,30.90
2018-07-19T17:50:56.251Z,30.70
2018-07-19T17:53:24.678Z,30.60
2018-07-19T17:55:52.793Z,30.50
2018-07-19T17:58:20.939Z,30.40
2018-07-19T18:00:49.037Z,30.30
2018-07-19T18:03:17.121Z,30.30
2018-07-19T18:05:45.217Z,30.10
2018-07-19T18:08:13.326Z,29.90
2018-07-19T18:10:41.446Z,29.80
2018-07-19T18:13:09.563Z,29.50
2018-07-19T18:15:37.665Z,29.40
2018-07-19T18:18:05.849Z,29.30
2018-07-19T18:20:33.954Z,29.20
2018-07-19T18:23:02.033Z,29.10
2018-07-19T18:25:30.146Z,29.00
2018-07-19T18:27:58.232Z,28.80
2018-07-19T18:30:26.341Z,28.70
2018-07-19T18:32:54.414Z,28.60
2018-07-19T18:35:22.502Z,28.40
2018-07-19T18:37:50.590Z,28.40
2018-07-19T18:40:18.669Z,28.30
2018-07-19T18:42:46.749Z,28.30
2018-07-19T18:45:14.845Z,28.20
2018-07-19T18:47:43.094Z,28.10
2018-07-19T18:50:11.173Z,28.00
2018-07-19T18:52:39.258Z,27.90
2018-07-19T18:55:07.348Z,27.80
2018-07-19T18:57:35.417Z,27.80
2018-07-19T19:00:03.747Z,27.70
2018-07-19T19:02:31.831Z,27.70
2018-07-19T19:04:59.939Z,27.60
2018-07-19T19:07:31.087Z,27.50
2018-07-19T19:09:59.213Z,27.50
2018-07-19T19:12:27.293Z,27.30
2018-07-19T19:14:55.372Z,27.20
2018-07-19T19:17:23.464Z,27.10
2018-07-19T19:19:51.577Z,27.00
2018-07-19T19:22:19.815Z,27.00
2018-07-19T19:24:47.885Z,26.90
2018-07-19T19:27:15.992Z,26.90
2018-07-19T19:29:44.085Z,26.80
2018-07-19T19:32:12.381Z,26.80
2018-07-19T19:34:40.484Z,26.70
2018-07-19T19:37:08.584Z,26.60
2018-07-19T19:39:36.907Z,26.50
2018-07-19T19:42:05.302Z,26.50
2018-07-19T19:44:33.641Z,26.40
2018-07-19T19:47:02.113Z,26.30
2018-07-19T19:49:30.398Z,26.20
2018-07-19T19:51:58.788Z,26.10
2018-07-19T19:54:32.694Z,26.00
2018-07-19T19:57:01.064Z,26.00
2018-07-19T19:59:29.421Z,25.90
2018-07-19T20:01:57.845Z,25.80
2018-07-19T20:04:26.762Z,25.70
2018-07-19T20:06:54.878Z,25.60
2018-07-19T20:09:22.994Z,25.60
2018-07-19T20:11:51.199Z,25.50
2018-07-19T20:14:19.397Z,25.40
2018-07-19T20:16:47.494Z,25.20
2018-07-19T20:19:15.577Z,25.20
2018-07-19T20:21:43.673Z,25.20
2018-07-19T20:24:11.790Z,25.10
2018-07-19T20:26:40.253Z,25.00
2018-07-19T20:29:08.350Z,25.00
2018-07-19T20:31:36.449Z,24.90
2018-07-19T20:34:04.555Z,24.80
2018-07-19T20:36:32.645Z,24.80
2018-07-19T20:39:00.733Z,24.70
2018-07-19T20:41:28.833Z,24.70
2018-07-19T20:43:56.945Z,24.60
2018-07-19T20:46:25.137Z,24.50
2018-07-19T20:48:53.270Z,24.50
2018-07-19T20:51:21.417Z,24.40
2018-07-19T20:53:49.547Z,24.40
2018-07-19T20:56:17.685Z,24.30
2018-07-19T20:58:45.825Z,24.30
2018-07-19T21:01:13.961Z,24.20
2018-07-19T21:03:42.049Z,24.10
2018-07-19T21:06:10.161Z,24.00
2018-07-19T21:11:06.201Z,23.90
2018-07-19T21:13:34.290Z,23.80
2018-07-19T21:16:02.405Z,23.80
2018-07-19T21:18:30.497Z,23.70
2018-07-19T21:20:58.596Z,23.70
2018-07-19T21:23:26.719Z,23.60
2018-07-19T21:25:54.819Z,23.50
2018-07-19T21:28:22.963Z,23.40
2018-07-19T21:30:51.070Z,23.40
2018-07-19T21:33:19.153Z,23.40
2018-07-19T21:35:47.247Z,23.30
2018-07-19T21:38:16.272Z,23.30
2018-07-19T21:40:44.346Z,23.30
2018-07-19T21:43:12.431Z,23.20
2018-07-19T21:45:40.502Z,23.10
2018-07-19T21:48:08.669Z,23.10
2018-07-19T21:50:36.773Z,23.10
2018-07-19T21:53:04.909Z,23.10
2018-07-19T21:55:33.002Z,23.00
2018-07-19T21:58:01.117Z,22.90
2018-07-19T22:00:30.462Z,22.90
2018-07-19T22:02:59.861Z,22.80
2018-07-19T22:05:28.145Z,22.70
2018-07-19T22:07:56.270Z,22.70
2018-07-19T22:10:24.357Z,22.70
2018-07-19T22:12:52.457Z,22.80
2018-07-19T22:15:20.529Z,22.80
2018-07-19T22:17:48.622Z,22.80
2018-07-19T22:20:16.706Z,22.80
2018-07-19T22:22:44.903Z,22.80
2018-07-19T22:25:12.985Z,22.80
2018-07-19T22:27:41.154Z,22.80
2018-07-19T22:30:09.221Z,22.80
2018-07-19T22:32:37.472Z,22.70
2018-07-19T22:35:05.542Z,22.70
2018-07-19T22:37:33.625Z,22.60
2018-07-19T22:40:01.717Z,22.60
2018-07-19T22:42:29.870Z,22.50
2018-07-19T22:44:58.173Z,22.50
2018-07-19T22:47:26.289Z,22.50
2018-07-19T22:49:54.401Z,22.40
2018-07-19T22:52:22.486Z,22.40
2018-07-19T22:54:50.614Z,22.30
2018-07-19T22:57:18.854Z,22.20
2018-07-19T22:59:47.050Z,22.20
2018-07-19T23:02:15.358Z,22.10
2018-07-19T23:04:44.117Z,22.20
2018-07-19T23:07:12.225Z,22.10
2018-07-19T23:09:40.312Z,22.10
2018-07-19T23:12:08.434Z,22.00
2018-07-19T23:14:36.504Z,22.00
2018-07-19T23:17:04.617Z,21.90
2018-07-19T23:19:32.708Z,21.80
2018-07-19T23:22:00.817Z,21.70
2018-07-19T23:24:28.893Z,21.60
2018-07-19T23:26:57.115Z,21.60
2018-07-19T23:29:25.181Z,21.50
2018-07-19T23:31:53.287Z,21.50
2018-07-19T23:34:21.352Z,21.50
2018-07-19T23:36:52.647Z,21.50
2018-07-19T23:39:25.233Z,21.50
2018-07-19T23:44:01.191Z,21.40
2018-07-19T23:46:33.480Z,21.40
2018-07-19T23:49:06.359Z,21.40
2018-07-19T23:51:35.460Z,21.40
2018-07-19T23:54:03.549Z,21.30
2018-07-19T23:56:31.668Z,21.20
2018-07-19T23:58:59.765Z,21.30
